Time;durP1;ratioP1;P1;durP2;ratioP2;P2;SDS_P1;SDS_P2;PMS_P1;PMS_P2;Temp;Humidity;BMP_temperature;BMP_pressure;BME280_temperature;BME280_humidity;BME280_pressure;Samples;Min_cycle;Max_cycle;Signal;HPM_P1;HPM_P2
2022/01/22 00:01:23;;;;;;;4.60;1.80;;;;;;;;;;5034698;28;20032;-73
2022/01/22 00:03:50;;;;;;;2.78;1.73;;;;;;;;;;5053124;28;20114;-74
2022/01/22 00:06:18;;;;;;;4.32;2.05;;;;;;;;;;5052997;28;20048;-74
2022/01/22 00:08:46;;;;;;;4.90;2.10;;;;;;;;;;5034973;28;20041;-73
2022/01/22 00:11:13;;;;;;;4.95;2.00;;;;;;;;;;5052848;28;20487;-72
2022/01/22 00:16:27;;;;;;;4.28;1.95;;;;;;;;;;5052303;28;20071;-72
2022/01/22 00:18:54;;;;;;;5.13;2.58;;;;;;;;;;5048939;28;20095;-72
2022/01/22 00:21:22;;;;;;;5.72;2.65;;;;;;;;;;5018324;28;20044;-74
2022/01/22 00:23:56;;;;;;;6.68;2.80;;;;;;;;;;5052527;28;20050;-74
2022/01/22 00:26:24;;;;;;;7.95;3.10;;;;;;;;;;5052592;28;20124;-75
2022/01/22 00:28:51;;;;;;;4.45;2.63;;;;;;;;;;5052463;28;20033;-74
2022/01/22 00:31:18;;;;;;;8.95;2.72;;;;;;;;;;5052481;28;20045;-73
2022/01/22 00:33:46;;;;;;;8.23;2.95;;;;;;;;;;5052435;28;20051;-74
2022/01/22 00:36:14;;;;;;;6.60;3.00;;;;;;;;;;5034328;28;20144;-73
2022/01/22 00:38:41;;;;;;;8.75;3.65;;;;;;;;;;5034672;28;20045;-74
2022/01/22 00:41:10;;;;;;;10.50;4.03;;;;;;;;;;5034904;28;20072;-73
2022/01/22 00:43:38;;;;;;;6.80;3.60;;;;;;;;;;5052464;28;20033;-75
2022/01/22 00:46:05;;;;;;;7.72;3.42;;;;;;;;;;5034128;28;20041;-73
2022/01/22 00:48:33;;;;;;;6.22;3.17;;;;;;;;;;5034231;28;20131;-74
2022/01/22 00:51:01;;;;;;;6.95;3.33;;;;;;;;;;5052291;28;20083;-72
2022/01/22 00:53:28;;;;;;;5.25;2.75;;;;;;;;;;5034073;28;20496;-74
2022/01/22 00:55:55;;;;;;;6.68;2.58;;;;;;;;;;5034255;28;20140;-72
2022/01/22 00:58:23;;;;;;;4.43;2.17;;;;;;;;;;5051538;28;20057;-73
2022/01/22 01:00:51;;;;;;;5.97;2.53;;;;;;;;;;5051848;28;20139;-73
2022/01/22 01:03:18;;;;;;;5.95;2.40;;;;;;;;;;5052285;28;20046;-74
2022/01/22 01:05:46;;;;;;;5.90;1.90;;;;;;;;;;5034028;28;20447;-73
2022/01/22 01:08:14;;;;;;;5.53;2.28;;;;;;;;;;5033693;28;20091;-74
2022/01/22 01:10:41;;;;;;;6.30;2.40;;;;;;;;;;5032764;28;20049;-75
2022/01/22 01:13:09;;;;;;;5.25;2.15;;;;;;;;;;5033810;28;20080;-75
2022/01/22 01:15:53;;;;;;;7.03;2.13;;;;;;;;;;5034235;28;20079;-73
2022/01/22 01:32:18;;;;;;;4.72;2.22;;;;;;;;;;5038321;28;20047;-74
2022/01/22 01:34:49;;;;;;;5.93;2.10;;;;;;;;;;5021777;28;20152;-75
2022/01/22 01:37:19;;;;;;;6.65;2.10;;;;;;;;;;5038024;28;20059;-73
2022/01/22 01:39:51;;;;;;;5.13;2.25;;;;;;;;;;5038129;28;20376;-73
2022/01/22 01:42:31;;;;;;;2.42;1.90;;;;;;;;;;5037694;28;20051;-73
2022/01/22 01:45:01;;;;;;;6.70;2.47;;;;;;;;;;5037714;28;20464;-73
2022/01/22 01:47:54;;;;;;;6.50;2.03;;;;;;;;;;5024132;28;20048;-72
2022/01/22 01:50:21;;;;;;;5.28;1.88;;;;;;;;;;5037615;28;20048;-74
2022/01/22 01:53:08;;;;;;;2.75;2.03;;;;;;;;;;5037467;28;20059;-74
2022/01/22 01:55:50;;;;;;;3.85;1.95;;;;;;;;;;5038145;28;20045;-75
2022/01/22 01:58:28;;;;;;;6.00;2.30;;;;;;;;;;5038237;28;20048;-76
2022/01/22 02:00:56;;;;;;;5.47;2.30;;;;;;;;;;5037260;28;20045;-72
2022/01/22 02:03:24;;;;;;;8.68;3.03;;;;;;;;;;5037153;28;20041;-75
2022/01/22 02:06:02;;;;;;;11.82;3.15;;;;;;;;;;5038012;28;20458;-72
2022/01/22 02:08:32;;;;;;;4.25;2.63;;;;;;;;;;5038211;28;20043;-72
2022/01/22 02:11:05;;;;;;;6.75;2.55;;;;;;;;;;5037807;28;20087;-72
2022/01/22 02:25:44;;;;;;;5.03;2.85;;;;;;;;;;4977447;28;20042;-75
2022/01/22 02:28:13;;;;;;;3.90;2.80;;;;;;;;;;4977552;28;20052;-72
2022/01/22 02:30:45;;;;;;;7.53;3.05;;;;;;;;;;4977663;28;20056;-72
2022/01/22 02:33:47;;;;;;;4.13;2.58;;;;;;;;;;4994304;28;20050;-72
2022/01/22 02:36:23;;;;;;;5.55;3.38;;;;;;;;;;4977295;28;20051;-75
2022/01/22 02:39:04;;;;;;;7.63;3.10;;;;;;;;;;4977246;28;20050;-75
2022/01/22 02:41:34;;;;;;;3.67;2.35;;;;;;;;;;4976584;28;20042;-72
2022/01/22 02:44:02;;;;;;;4.45;2.50;;;;;;;;;;4977436;28;20466;-75
2022/01/22 02:46:41;;;;;;;3.85;2.45;;;;;;;;;;4994677;28;20043;-75
2022/01/22 02:49:10;;;;;;;4.88;2.75;;;;;;;;;;5020698;28;20063;-75
2022/01/22 02:51:39;;;;;;;4.57;2.55;;;;;;;;;;5037367;28;20538;-72
2022/01/22 02:54:06;;;;;;;4.00;2.15;;;;;;;;;;5036534;28;20052;-72
2022/01/22 02:56:34;;;;;;;3.67;2.40;;;;;;;;;;5054792;28;20115;-74
2022/01/22 02:59:04;;;;;;;3.80;2.58;;;;;;;;;;5037083;28;20488;-72
2022/01/22 03:01:31;;;;;;;7.38;2.58;;;;;;;;;;5036773;28;20052;-75
2022/01/22 03:03:59;;;;;;;5.65;2.22;;;;;;;;;;5036969;28;20131;-75
2022/01/22 03:06:29;;;;;;;6.60;2.17;;;;;;;;;;5036732;28;20042;-75
2022/01/22 03:08:57;;;;;;;5.25;2.40;;;;;;;;;;5036934;28;20044;-75
2022/01/22 03:11:29;;;;;;;5.68;2.40;;;;;;;;;;5020391;28;20139;-72
2022/01/22 03:19:10;;;;;;;5.75;2.70;;;;;;;;;;5036837;28;20056;-74
2022/01/22 03:21:53;;;;;;;4.05;2.42;;;;;;;;;;5054248;28;20052;-75
2022/01/22 03:27:42;;;;;;;3.78;2.22;;;;;;;;;;5036441;28;20064;-72
2022/01/22 03:30:04;;;;;;;8.02;2.38;;;;;;;;;;5034713;28;20052;-73
2022/01/22 03:32:40;;;;;;;9.00;2.35;;;;;;;;;;5036185;28;20132;-71
2022/01/22 03:35:11;;;;;;;5.32;1.92;;;;;;;;;;5020081;28;20512;-75
2022/01/22 03:37:40;;;;;;;5.35;2.67;;;;;;;;;;5053272;28;20037;-72
2022/01/22 03:40:12;;;;;;;3.45;1.77;;;;;;;;;;5036370;28;20539;-75
2022/01/22 03:42:41;;;;;;;7.60;1.67;;;;;;;;;;5036091;28;20132;-75
2022/01/22 03:45:10;;;;;;;2.45;1.48;;;;;;;;;;5035955;28;20055;-75
2022/01/22 03:47:39;;;;;;;7.05;1.70;;;;;;;;;;5036088;28;20041;-75
2022/01/22 03:50:07;;;;;;;6.38;1.80;;;;;;;;;;5034901;28;20048;-72
2022/01/22 03:52:36;;;;;;;7.72;1.80;;;;;;;;;;5035421;28;20829;-72
2022/01/22 03:55:06;;;;;;;3.60;1.35;;;;;;;;;;5035613;28;20059;-75
2022/01/22 03:57:53;;;;;;;6.13;2.03;;;;;;;;;;5053994;28;20055;-72
2022/01/22 04:00:21;;;;;;;9.02;1.80;;;;;;;;;;5035637;28;20049;-75
2022/01/22 04:05:53;;;;;;;6.57;1.60;;;;;;;;;;5035777;28;20124;-75
2022/01/22 04:08:21;;;;;;;9.13;1.67;;;;;;;;;;5035152;28;20049;-74
2022/01/22 04:10:49;;;;;;;7.95;1.73;;;;;;;;;;5035684;28;20045;-75
2022/01/22 04:13:19;;;;;;;5.10;1.67;;;;;;;;;;5035268;28;20048;-72
2022/01/22 04:15:48;;;;;;;6.75;1.60;;;;;;;;;;5035757;28;20452;-75
2022/01/22 04:29:06;;;;;;;10.20;2.03;;;;;;;;;;5053112;28;20534;-75
2022/01/22 04:31:34;;;;;;;10.07;1.85;;;;;;;;;;5053317;28;20045;-74
2022/01/22 04:34:02;;;;;;;5.43;2.25;;;;;;;;;;5035262;28;20048;-72
2022/01/22 04:36:31;;;;;;;7.50;2.28;;;;;;;;;;5018732;28;20079;-72
2022/01/22 04:38:58;;;;;;;7.20;1.67;;;;;;;;;;5035476;28;20143;-74
2022/01/22 04:41:26;;;;;;;8.57;1.60;;;;;;;;;;5053067;28;20487;-72
2022/01/22 04:43:59;;;;;;;6.57;1.67;;;;;;;;;;5035395;28;20119;-75
2022/01/22 04:54:59;;;;;;;5.88;1.38;;;;;;;;;;5034929;28;20415;-72
2022/01/22 04:57:32;;;;;;;5.18;2.00;;;;;;;;;;5035066;28;20053;-72
2022/01/22 05:00:00;;;;;;;6.78;2.00;;;;;;;;;;5035199;28;20053;-72
2022/01/22 05:02:32;;;;;;;2.63;1.50;;;;;;;;;;5034547;28;20041;-75
2022/01/22 05:05:05;;;;;;;8.25;2.08;;;;;;;;;;5052710;28;20111;-75
2022/01/22 05:07:50;;;;;;;6.05;1.70;;;;;;;;;;5034132;28;20132;-75
2022/01/22 05:10:33;;;;;;;7.47;1.73;;;;;;;;;;5034708;28;20049;-75
2022/01/22 05:13:01;;;;;;;4.85;1.75;;;;;;;;;;5034176;28;20041;-74
2022/01/22 05:15:29;;;;;;;5.60;1.50;;;;;;;;;;5034943;28;20139;-72
2022/01/22 05:17:59;;;;;;;3.70;1.52;;;;;;;;;;5019127;28;20053;-72
2022/01/22 05:20:35;;;;;;;6.47;1.80;;;;;;;;;;5034940;28;20041;-72
2022/01/22 05:23:17;;;;;;;7.93;2.53;;;;;;;;;;5035008;28;20064;-74
2022/01/22 05:25:57;;;;;;;5.50;2.30;;;;;;;;;;5034542;28;20040;-75
2022/01/22 05:29:18;;;;;;;8.25;2.25;;;;;;;;;;5052548;28;20418;-75
2022/01/22 05:32:19;;;;;;;8.27;1.98;;;;;;;;;;4991009;28;20185;-75
2022/01/22 05:37:53;;;;;;;9.27;2.33;;;;;;;;;;4974604;28;20102;-76
2022/01/22 05:40:20;;;;;;;7.15;2.10;;;;;;;;;;4975000;28;20050;-72
2022/01/22 05:42:47;;;;;;;4.40;1.90;;;;;;;;;;4974930;28;20137;-72
2022/01/22 05:45:15;;;;;;;10.30;2.50;;;;;;;;;;4974122;28;20053;-72
2022/01/22 05:47:45;;;;;;;3.47;1.77;;;;;;;;;;4991138;28;20046;-75
2022/01/22 05:50:26;;;;;;;8.98;2.20;;;;;;;;;;4973970;28;20050;-72
2022/01/22 05:52:58;;;;;;;7.95;2.28;;;;;;;;;;4958930;28;20129;-72
2022/01/22 06:01:02;;;;;;;7.15;2.33;;;;;;;;;;4970875;28;20052;-72
2022/01/22 06:03:50;;;;;;;11.95;2.55;;;;;;;;;;5046668;28;20152;-72
2022/01/22 06:06:17;;;;;;;6.70;2.30;;;;;;;;;;5052255;28;20041;-71
2022/01/22 06:08:51;;;;;;;9.18;2.35;;;;;;;;;;5034571;28;20404;-72
2022/01/22 06:11:24;;;;;;;7.32;2.38;;;;;;;;;;5034735;28;20048;-76
2022/01/22 06:13:53;;;;;;;10.73;2.72;;;;;;;;;;5019523;28;20424;-71
2022/01/22 06:16:30;;;;;;;12.50;3.30;;;;;;;;;;5037969;28;20529;-72
2022/01/22 06:19:25;;;;;;;7.88;2.95;;;;;;;;;;5021591;28;20471;-71
2022/01/22 06:21:53;;;;;;;9.10;2.75;;;;;;;;;;5054931;28;20116;-72
2022/01/22 06:24:24;;;;;;;10.23;2.50;;;;;;;;;;5037465;28;20041;-79
2022/01/22 06:26:52;;;;;;;5.53;2.38;;;;;;;;;;5036768;28;20064;-71
2022/01/22 06:29:20;;;;;;;5.88;2.50;;;;;;;;;;5037013;28;20049;-76
2022/01/22 06:31:48;;;;;;;6.13;2.70;;;;;;;;;;5034743;28;20063;-79
2022/01/22 06:34:17;;;;;;;7.47;2.80;;;;;;;;;;5037449;28;20137;-71
2022/01/22 06:36:45;;;;;;;6.90;2.85;;;;;;;;;;5020964;28;20048;-72
2022/01/22 06:39:16;;;;;;;6.00;2.53;;;;;;;;;;5036673;28;20074;-80
2022/01/22 06:41:50;;;;;;;8.65;2.50;;;;;;;;;;5054638;28;20076;-73
2022/01/22 06:44:47;;;;;;;9.60;2.72;;;;;;;;;;5051568;28;20052;-79
2022/01/22 06:47:34;;;;;;;5.57;2.30;;;;;;;;;;5055443;28;20048;-79
2022/01/22 06:50:14;;;;;;;9.07;3.05;;;;;;;;;;5036865;28;20037;-76
2022/01/22 06:52:41;;;;;;;7.15;2.80;;;;;;;;;;5055416;28;20045;-73
2022/01/22 06:55:19;;;;;;;7.07;2.60;;;;;;;;;;5037641;28;20106;-80
2022/01/22 06:57:47;;;;;;;4.93;2.70;;;;;;;;;;5020563;28;20056;-71
2022/01/22 07:00:26;;;;;;;5.93;2.78;;;;;;;;;;5036889;28;20048;-79
2022/01/22 07:03:04;;;;;;;4.65;2.75;;;;;;;;;;5036752;28;20041;-72
2022/01/22 07:05:33;;;;;;;5.40;2.30;;;;;;;;;;5020519;28;20048;-71
2022/01/22 07:08:07;;;;;;;3.22;1.75;;;;;;;;;;5036831;28;20043;-71
2022/01/22 07:10:39;;;;;;;4.50;2.13;;;;;;;;;;5037178;28;20048;-76
2022/01/22 07:13:07;;;;;;;8.77;2.88;;;;;;;;;;5036904;28;20041;-76
2022/01/22 07:15:36;;;;;;;4.10;2.42;;;;;;;;;;5018599;28;20615;-80
2022/01/22 07:18:13;;;;;;;6.53;2.53;;;;;;;;;;5026618;28;20046;-83
2022/01/22 07:20:43;;;;;;;6.10;2.47;;;;;;;;;;5036131;28;20052;-74
2022/01/22 07:23:53;;;;;;;6.05;2.33;;;;;;;;;;5035110;28;20047;-74
2022/01/22 07:26:07;;;;;;;8.73;2.08;;;;;;;;;;5034882;28;20527;-73
2022/01/22 07:28:47;;;;;;;4.78;2.03;;;;;;;;;;5036356;28;20045;-76
2022/01/22 07:31:16;;;;;;;5.70;2.15;;;;;;;;;;5035418;28;20041;-80
2022/01/22 07:33:44;;;;;;;5.50;2.30;;;;;;;;;;5036844;28;20049;-80
2022/01/22 07:36:14;;;;;;;5.20;2.35;;;;;;;;;;5020858;28;20114;-76
2022/01/22 07:38:43;;;;;;;4.13;2.40;;;;;;;;;;5035774;28;20057;-73
2022/01/22 07:41:12;;;;;;;6.28;2.95;;;;;;;;;;5036364;28;20120;-71
2022/01/22 07:43:49;;;;;;;7.03;2.40;;;;;;;;;;5036290;28;20049;-76
2022/01/22 07:46:23;;;;;;;7.57;2.65;;;;;;;;;;5053972;28;20041;-80
2022/01/22 07:48:56;;;;;;;4.30;2.10;;;;;;;;;;5019076;28;20041;-72
2022/01/22 07:51:29;;;;;;;;;;;;;;;;;;5016495;28;20042;-72
2022/01/22 07:53:56;;;;;;;9.63;2.75;;;;;;;;;;5016345;28;19944;-72
2022/01/22 07:56:28;;;;;;;8.40;3.67;;;;;;;;;;5033255;28;20049;-73
2022/01/22 07:58:58;;;;;;;13.90;3.60;;;;;;;;;;5000101;28;20052;-84
2022/01/22 08:01:31;;;;;;;6.70;2.63;;;;;;;;;;5032294;28;20049;-77
2022/01/22 08:04:23;;;;;;;6.10;3.30;;;;;;;;;;5033959;28;20052;-73
2022/01/22 08:06:56;;;;;;;8.23;3.03;;;;;;;;;;5017114;28;20092;-72
2022/01/22 08:09:45;;;;;;;4.88;2.70;;;;;;;;;;5034234;28;20510;-77
2022/01/22 08:12:17;;;;;;;9.70;2.80;;;;;;;;;;5033684;28;20102;-83
2022/01/22 08:14:46;;;;;;;10.18;3.15;;;;;;;;;;5023746;28;20084;-82
2022/01/22 08:17:14;;;;;;;9.35;3.60;;;;;;;;;;5035715;28;20550;-72
2022/01/22 08:19:42;;;;;;;6.22;3.25;;;;;;;;;;5035345;28;20140;-72
2022/01/22 08:22:39;;;;;;;7.63;3.35;;;;;;;;;;4977035;28;20171;-72
2022/01/22 08:25:24;;;;;;;11.68;3.55;;;;;;;;;;5053419;28;20041;-82
2022/01/22 08:30:44;;;;;;;11.10;3.58;;;;;;;;;;5034021;28;20501;-82
2022/01/22 08:35:53;;;;;;;10.60;3.67;;;;;;;;;;5035108;28;20526;-81
2022/01/22 08:38:25;;;;;;;8.40;3.42;;;;;;;;;;5034893;28;20060;-72
2022/01/22 08:40:53;;;;;;;13.02;3.80;;;;;;;;;;5031395;28;20037;-80
2022/01/22 08:43:22;;;;;;;16.38;6.38;;;;;;;;;;5029725;28;20040;-80
2022/01/22 08:45:53;;;;;;;8.90;6.45;;;;;;;;;;5024530;28;20140;-72
2022/01/22 08:48:23;;;;;;;8.93;5.30;;;;;;;;;;5009467;28;20050;-78
2022/01/22 08:50:55;;;;;;;10.20;4.97;;;;;;;;;;5025655;28;20048;-82
2022/01/22 08:53:45;;;;;;;6.93;3.05;;;;;;;;;;5021040;28;20052;-72
2022/01/22 08:56:12;;;;;;;17.17;5.85;;;;;;;;;;5026285;28;20496;-74
2022/01/22 08:58:43;;;;;;;7.30;2.50;;;;;;;;;;5033414;28;20484;-74
2022/01/22 09:01:28;;;;;;;3.50;1.48;;;;;;;;;;5034119;28;20534;-71
2022/01/22 09:04:01;;;;;;;6.93;1.70;;;;;;;;;;5033458;28;20052;-71
2022/01/22 09:06:51;;;;;;;5.68;1.80;;;;;;;;;;5034876;28;20530;-71
2022/01/22 09:09:44;;;;;;;6.32;2.22;;;;;;;;;;5038159;28;20072;-77
2022/01/22 09:12:48;;;;;;;3.17;1.40;;;;;;;;;;4933010;29;20463;-72
2022/01/22 09:15:23;;;;;;;4.25;1.90;;;;;;;;;;5001705;28;20048;-74
2022/01/22 09:17:53;;;;;;;8.55;2.08;;;;;;;;;;5031911;28;20064;-74
2022/01/22 09:20:43;;;;;;;9.63;2.45;;;;;;;;;;5034917;28;20411;-79
2022/01/22 09:23:14;;;;;;;7.88;2.67;;;;;;;;;;5032160;28;20041;-78
2022/01/22 09:25:42;;;;;;;4.32;2.10;;;;;;;;;;5018489;28;20115;-78
2022/01/22 09:28:13;;;;;;;12.65;2.50;;;;;;;;;;5034654;28;20514;-74
2022/01/22 09:30:47;;;;;;;9.80;2.63;;;;;;;;;;5034686;28;20049;-79
2022/01/22 09:33:16;;;;;;;5.45;2.20;;;;;;;;;;5035107;28;20504;-79
2022/01/22 09:36:05;;;;;;;10.82;3.08;;;;;;;;;;5029174;28;20503;-76
2022/01/22 09:38:53;;;;;;;5.88;2.40;;;;;;;;;;5043760;28;20462;-71
2022/01/22 09:41:28;;;;;;;5.95;2.15;;;;;;;;;;5048670;28;20128;-78
2022/01/22 09:44:02;;;;;;;9.85;2.20;;;;;;;;;;5034967;28;20045;-78
2022/01/22 09:46:45;;;;;;;8.73;2.72;;;;;;;;;;5034926;28;20411;-79
2022/01/22 09:49:27;;;;;;;7.32;2.58;;;;;;;;;;5037288;28;20111;-78
2022/01/22 09:52:09;;;;;;;8.02;3.10;;;;;;;;;;5056543;28;20045;-78
2022/01/22 09:54:43;;;;;;;6.82;2.67;;;;;;;;;;5040286;28;20589;-73
2022/01/22 09:57:12;;;;;;;7.60;2.70;;;;;;;;;;5055952;28;20407;-72
2022/01/22 09:59:43;;;;;;;8.38;2.88;;;;;;;;;;5038121;28;20353;-73
2022/01/22 10:02:19;;;;;;;7.30;3.05;;;;;;;;;;5037634;28;20041;-73
2022/01/22 10:04:52;;;;;;;8.60;2.38;;;;;;;;;;5037270;28;20037;-72
2022/01/22 10:07:37;;;;;;;7.00;2.72;;;;;;;;;;5054334;28;20052;-77
2022/01/22 10:10:22;;;;;;;4.88;2.42;;;;;;;;;;5031020;28;20045;-76
2022/01/22 10:13:12;;;;;;;8.02;2.30;;;;;;;;;;5118276;23;20122;-72
2022/01/22 10:16:10;;;;;;;6.60;2.80;;;;;;;;;;5049266;28;20407;-72
2022/01/22 10:18:39;;;;;;;8.30;2.17;;;;;;;;;;5027656;28;20090;-78
2022/01/22 10:21:08;;;;;;;5.97;2.60;;;;;;;;;;5055332;28;20797;-72
2022/01/22 10:23:41;;;;;;;8.00;2.75;;;;;;;;;;5032868;28;20415;-76
2022/01/22 10:26:12;;;;;;;7.10;2.97;;;;;;;;;;5054176;28;20048;-72
2022/01/22 10:28:40;;;;;;;4.75;2.42;;;;;;;;;;5026594;28;20462;-75
2022/01/22 10:31:17;;;;;;;8.13;3.00;;;;;;;;;;5055082;28;20037;-76
2022/01/22 10:34:08;;;;;;;7.47;2.53;;;;;;;;;;5014393;28;20043;-72
2022/01/22 10:37:11;;;;;;;11.40;3.50;;;;;;;;;;4970001;28;20505;-76
2022/01/22 10:39:45;;;;;;;7.40;2.70;;;;;;;;;;5049112;28;20048;-76
2022/01/22 10:42:24;;;;;;;6.10;2.28;;;;;;;;;;5040646;28;20045;-77
2022/01/22 10:44:59;;;;;;;8.30;2.95;;;;;;;;;;5057862;28;20078;-73
2022/01/22 10:47:28;;;;;;;9.57;2.80;;;;;;;;;;5056585;28;20060;-72
2022/01/22 10:50:15;;;;;;;8.45;2.72;;;;;;;;;;5046228;28;20038;-77
2022/01/22 10:52:50;;;;;;;9.05;2.75;;;;;;;;;;5064558;28;20037;-73
2022/01/22 10:55:19;;;;;;;9.55;3.47;;;;;;;;;;5060699;28;20045;-78
2022/01/22 10:58:08;;;;;;;7.25;2.60;;;;;;;;;;5063097;28;20059;-77
2022/01/22 11:00:36;;;;;;;9.13;3.00;;;;;;;;;;5025954;28;20049;-77
2022/01/22 11:03:20;;;;;;;6.28;2.92;;;;;;;;;;5036850;28;20041;-77
2022/01/22 11:05:48;;;;;;;7.45;2.85;;;;;;;;;;5054624;28;20044;-72
2022/01/22 11:08:18;;;;;;;8.05;3.10;;;;;;;;;;5054408;28;20116;-73
2022/01/22 11:10:46;;;;;;;5.10;2.58;;;;;;;;;;5044114;28;20076;-78
2022/01/22 11:13:16;;;;;;;5.30;2.38;;;;;;;;;;5065220;28;20060;-72
2022/01/22 11:15:44;;;;;;;5.55;2.83;;;;;;;;;;5074429;28;20062;-77
2022/01/22 11:18:11;;;;;;;7.32;3.00;;;;;;;;;;5068156;28;20088;-71
2022/01/22 11:20:39;;;;;;;5.90;2.67;;;;;;;;;;5064757;28;20048;-75
2022/01/22 11:23:07;;;;;;;8.00;2.30;;;;;;;;;;5044216;28;20037;-76
2022/01/22 11:25:35;;;;;;;10.55;2.75;;;;;;;;;;5041400;28;20037;-77
2022/01/22 11:28:03;;;;;;;5.30;2.70;;;;;;;;;;5036569;28;20041;-72
2022/01/22 11:30:32;;;;;;;7.90;2.40;;;;;;;;;;5054311;28;20393;-77
2022/01/22 11:33:10;;;;;;;5.30;2.20;;;;;;;;;;5036279;28;20053;-76
2022/01/22 11:35:41;;;;;;;7.15;2.97;;;;;;;;;;5053793;28;20493;-72
2022/01/22 11:38:11;;;;;;;5.90;2.60;;;;;;;;;;5034749;28;20044;-72
2022/01/22 11:40:41;;;;;;;10.13;2.70;;;;;;;;;;5053864;28;20037;-72
2022/01/22 11:43:10;;;;;;;10.27;2.72;;;;;;;;;;5036338;28;20044;-72
2022/01/22 11:45:50;;;;;;;9.98;3.13;;;;;;;;;;5036141;28;20060;-72
2022/01/22 11:48:30;;;;;;;6.25;2.28;;;;;;;;;;5034831;28;20459;-72
2022/01/22 11:51:16;;;;;;;3.80;1.67;;;;;;;;;;5052763;28;20072;-72
2022/01/22 11:53:53;;;;;;;5.55;2.10;;;;;;;;;;5053230;28;20045;-75
2022/01/22 11:56:26;;;;;;;3.55;1.42;;;;;;;;;;5053655;28;20404;-72
2022/01/22 11:58:56;;;;;;;5.00;1.80;;;;;;;;;;5053476;28;20071;-73
2022/01/22 12:01:56;;;;;;;6.07;1.75;;;;;;;;;;5035512;28;20068;-72
2022/01/22 12:04:25;;;;;;;3.85;1.45;;;;;;;;;;5010528;28;20048;-72
2022/01/22 12:07:02;;;;;;;3.80;1.50;;;;;;;;;;5044891;28;20029;-73
2022/01/22 12:09:32;;;;;;;3.00;1.40;;;;;;;;;;5044340;28;20479;-78
2022/01/22 12:15:07;;;;;;;4.35;2.00;;;;;;;;;;5023305;28;20132;-72
2022/01/22 12:17:49;;;;;;;6.38;1.20;;;;;;;;;;5027139;28;20048;-72
2022/01/22 12:23:15;;;;;;;4.80;1.85;;;;;;;;;;5064155;28;20071;-77
2022/01/22 12:25:42;;;;;;;6.13;1.80;;;;;;;;;;5048728;28;20139;-71
2022/01/22 12:28:11;;;;;;;6.03;1.52;;;;;;;;;;5043498;28;20575;-71
2022/01/22 12:30:45;;;;;;;11.38;2.45;;;;;;;;;;5055600;28;20029;-71
2022/01/22 12:33:16;;;;;;;11.98;2.42;;;;;;;;;;5035841;28;20048;-78
2022/01/22 12:35:47;;;;;;;6.60;1.90;;;;;;;;;;5054818;28;20504;-79
2022/01/22 12:41:13;;;;;;;5.88;1.60;;;;;;;;;;5038723;28;20051;-71
2022/01/22 12:43:44;;;;;;;6.57;2.55;;;;;;;;;;5052475;28;20029;-72
2022/01/22 12:46:11;;;;;;;5.53;1.48;;;;;;;;;;5051956;28;20041;-71
2022/01/22 12:48:39;;;;;;;5.63;2.08;;;;;;;;;;5052861;28;20037;-77
2022/01/22 12:51:07;;;;;;;7.53;1.92;;;;;;;;;;5052331;28;20045;-71
2022/01/22 12:53:36;;;;;;;4.32;1.75;;;;;;;;;;5052704;28;20061;-72
2022/01/22 12:58:40;;;;;;;6.18;1.75;;;;;;;;;;5052405;28;20480;-71
2022/01/22 13:01:09;;;;;;;2.67;1.02;;;;;;;;;;5035021;28;20071;-79
2022/01/22 13:03:40;;;;;;;2.83;1.02;;;;;;;;;;5052573;28;20041;-79
2022/01/22 13:06:07;;;;;;;3.22;1.30;;;;;;;;;;5052535;28;20052;-72
2022/01/22 13:09:11;;;;;;;5.18;1.73;;;;;;;;;;4991568;28;20125;-78
2022/01/22 13:11:46;;;;;;;4.35;2.05;;;;;;;;;;5041186;28;20077;-79
2022/01/22 13:14:33;;;;;;;5.50;2.38;;;;;;;;;;5034810;28;20131;-78
2022/01/22 13:17:02;;;;;;;4.88;1.98;;;;;;;;;;5052478;28;20064;-78
2022/01/22 13:19:30;;;;;;;5.68;2.00;;;;;;;;;;5052319;28;20036;-78
2022/01/22 13:21:59;;;;;;;6.70;2.47;;;;;;;;;;5060992;28;20045;-78
2022/01/22 13:24:27;;;;;;;6.38;2.60;;;;;;;;;;5058565;28;20377;-71
2022/01/22 13:29:30;;;;;;;5.43;2.30;;;;;;;;;;5067290;28;20098;-79
2022/01/22 13:31:57;;;;;;;4.47;1.92;;;;;;;;;;5060010;28;20043;-77
2022/01/22 13:34:38;;;;;;;6.50;1.95;;;;;;;;;;5069044;28;20389;-78
2022/01/22 13:38:02;;;;;;;8.10;3.05;;;;;;;;;;5046479;28;20071;-72
2022/01/22 13:40:31;;;;;;;2.50;1.33;;;;;;;;;;5048161;28;20064;-72
2022/01/22 13:48:27;;;;;;;5.50;1.23;;;;;;;;;;5025969;28;20077;-71
2022/01/22 13:50:55;;;;;;;5.93;1.85;;;;;;;;;;5043466;28;20052;-72
2022/01/22 13:53:22;;;;;;;8.18;2.17;;;;;;;;;;5046162;28;20043;-72
2022/01/22 13:56:21;;;;;;;11.38;1.98;;;;;;;;;;5046313;28;20034;-71
2022/01/22 13:58:54;;;;;;;2.90;1.40;;;;;;;;;;5037796;28;20077;-72
2022/01/22 14:01:48;;;;;;;3.78;2.05;;;;;;;;;;5044400;28;20059;-71
2022/01/22 14:04:16;;;;;;;4.05;2.08;;;;;;;;;;5045499;28;20662;-71
2022/01/22 14:06:46;;;;;;;5.10;1.80;;;;;;;;;;5028827;28;20029;-72
2022/01/22 14:09:18;;;;;;;7.63;1.85;;;;;;;;;;5045135;28;20048;-72
2022/01/22 14:12:04;;;;;;;6.88;1.80;;;;;;;;;;5044240;28;20045;-71
2022/01/22 14:14:51;;;;;;;4.30;1.58;;;;;;;;;;5043630;28;20095;-72
2022/01/22 14:17:26;;;;;;;3.70;0.95;;;;;;;;;;5041725;28;20098;-74
2022/01/22 14:20:00;;;;;;;2.75;0.90;;;;;;;;;;5027971;28;20042;-73
2022/01/22 14:22:28;;;;;;;2.20;1.00;;;;;;;;;;5025782;28;20060;-74
2022/01/22 14:25:11;;;;;;;3.67;1.40;;;;;;;;;;5045363;28;20388;-72
2022/01/22 14:27:39;;;;;;;2.65;1.40;;;;;;;;;;5011097;28;20041;-72
2022/01/22 14:30:07;;;;;;;4.50;1.48;;;;;;;;;;5025406;28;20056;-74
2022/01/22 14:32:35;;;;;;;1.40;1.10;;;;;;;;;;5044232;28;20654;-74
2022/01/22 14:35:19;;;;;;;4.97;1.35;;;;;;;;;;5024964;28;20045;-74
2022/01/22 14:37:49;;;;;;;3.30;1.42;;;;;;;;;;5043480;28;20412;-71
2022/01/22 14:45:59;;;;;;;4.55;1.50;;;;;;;;;;5051229;28;20523;-71
2022/01/22 14:48:27;;;;;;;2.10;1.30;;;;;;;;;;5043432;28;20037;-71
2022/01/22 14:50:55;;;;;;;5.65;1.63;;;;;;;;;;5045297;28;20045;-74
2022/01/22 14:53:22;;;;;;;3.72;1.50;;;;;;;;;;5044582;28;20033;-74
2022/01/22 14:55:50;;;;;;;3.75;1.20;;;;;;;;;;5044221;28;20041;-74
2022/01/22 14:58:18;;;;;;;1.25;1.15;;;;;;;;;;5026191;28;20091;-71
2022/01/22 15:00:50;;;;;;;1.98;1.33;;;;;;;;;;5043261;28;20064;-71
2022/01/22 15:03:17;;;;;;;1.20;1.08;;;;;;;;;;5026054;28;20384;-71
2022/01/22 15:05:45;;;;;;;2.80;1.45;;;;;;;;;;5045104;28;20060;-71
2022/01/22 15:08:12;;;;;;;1.90;1.55;;;;;;;;;;5045298;28;20143;-71
2022/01/22 15:10:40;;;;;;;3.70;1.50;;;;;;;;;;5056030;28;20040;-71
2022/01/22 15:13:08;;;;;;;3.47;1.40;;;;;;;;;;5025125;28;20060;-71
2022/01/22 15:15:35;;;;;;;4.40;1.70;;;;;;;;;;5043891;28;20044;-70
2022/01/22 15:18:11;;;;;;;3.67;1.30;;;;;;;;;;5027203;28;20448;-73
2022/01/22 15:20:40;;;;;;;4.00;1.27;;;;;;;;;;5043965;28;20033;-76
2022/01/22 15:23:07;;;;;;;3.35;1.35;;;;;;;;;;5025003;28;20041;-74
2022/01/22 15:25:35;;;;;;;2.92;1.55;;;;;;;;;;5024686;28;20401;-71
2022/01/22 15:28:05;;;;;;;5.55;1.70;;;;;;;;;;5042279;28;20068;-74
2022/01/22 15:30:35;;;;;;;4.40;1.48;;;;;;;;;;5026951;28;20547;-70
2022/01/22 15:33:17;;;;;;;3.50;1.73;;;;;;;;;;5025466;28;20134;-74
2022/01/22 15:35:45;;;;;;;2.92;1.17;;;;;;;;;;5045059;28;20068;-74
2022/01/22 15:38:13;;;;;;;2.97;1.35;;;;;;;;;;5044834;28;20056;-70
2022/01/22 15:40:41;;;;;;;2.85;1.30;;;;;;;;;;5044919;28;20033;-70
2022/01/22 15:43:09;;;;;;;4.25;1.77;;;;;;;;;;5040156;28;20042;-70
2022/01/22 15:45:37;;;;;;;4.80;1.90;;;;;;;;;;5050869;28;20128;-70
2022/01/22 15:48:06;;;;;;;2.60;1.40;;;;;;;;;;5041822;28;20099;-74
2022/01/22 15:50:34;;;;;;;5.65;1.50;;;;;;;;;;5043071;28;20036;-74
2022/01/22 15:53:12;;;;;;;7.35;2.05;;;;;;;;;;5042282;28;20036;-74
2022/01/22 15:55:40;;;;;;;5.40;1.38;;;;;;;;;;5052647;28;20043;-73
2022/01/22 15:58:08;;;;;;;5.22;1.80;;;;;;;;;;5029823;28;20052;-74
2022/01/22 16:00:38;;;;;;;3.03;1.58;;;;;;;;;;5044409;28;20041;-70
2022/01/22 16:03:06;;;;;;;1.98;1.35;;;;;;;;;;5018608;28;20483;-74
2022/01/22 16:05:34;;;;;;;3.92;1.52;;;;;;;;;;5039992;28;20036;-74
2022/01/22 16:08:02;;;;;;;8.30;1.92;;;;;;;;;;5042796;28;20048;-70
2022/01/22 16:10:50;;;;;;;4.78;1.75;;;;;;;;;;5051002;28;20039;-74
2022/01/22 16:13:18;;;;;;;10.20;2.70;;;;;;;;;;5037148;28;20053;-74
2022/01/22 16:15:46;;;;;;;8.82;2.50;;;;;;;;;;5032635;28;20160;-70
2022/01/22 16:18:16;;;;;;;2.88;1.50;;;;;;;;;;5038840;28;20416;-74
2022/01/22 16:20:45;;;;;;;10.05;2.22;;;;;;;;;;5043144;28;20042;-74
2022/01/22 16:23:13;;;;;;;4.30;1.90;;;;;;;;;;5048898;28;20518;-70
2022/01/22 16:25:42;;;;;;;4.85;2.10;;;;;;;;;;5042725;28;20136;-70
2022/01/22 16:28:10;;;;;;;2.60;2.17;;;;;;;;;;5044518;28;20504;-70
2022/01/22 16:30:38;;;;;;;3.35;1.98;;;;;;;;;;5024264;28;20033;-70
2022/01/22 16:33:06;;;;;;;4.28;2.42;;;;;;;;;;5027920;28;20041;-74
2022/01/22 16:35:36;;;;;;;5.35;2.30;;;;;;;;;;5033587;28;20124;-70
2022/01/22 16:38:03;;;;;;;5.45;2.85;;;;;;;;;;5025477;28;20566;-70
2022/01/22 16:40:32;;;;;;;7.78;2.80;;;;;;;;;;5042758;28;20041;-74
2022/01/22 16:43:03;;;;;;;4.35;2.67;;;;;;;;;;5019031;28;20056;-76
2022/01/22 16:59:42;;;;;;;5.75;2.90;;;;;;;;;;5037422;28;20041;-77
2022/01/22 17:02:16;;;;;;;7.65;3.08;;;;;;;;;;5053254;28;20037;-74
2022/01/22 17:04:50;;;;;;;3.70;2.70;;;;;;;;;;5052050;28;20492;-73
2022/01/22 17:07:29;;;;;;;3.55;2.70;;;;;;;;;;5051504;28;20037;-73
2022/01/22 17:15:11;;;;;;;4.20;2.50;;;;;;;;;;5047140;28;20462;-73
2022/01/22 17:17:40;;;;;;;9.15;3.60;;;;;;;;;;5034913;28;20186;-69